createdAt,value
2022-11-12T00:02:37.368Z,19.48
2022-11-12T00:05:25.584Z,19.51
2022-11-12T00:08:12.060Z,19.55
2022-11-12T00:10:58.796Z,19.62
2022-11-12T00:13:45.239Z,19.55
2022-11-12T00:16:32.340Z,19.54
2022-11-12T00:19:21.713Z,19.55
2022-11-12T00:22:10.057Z,19.54
2022-11-12T00:24:56.370Z,19.39
2022-11-12T00:27:42.715Z,19.39
2022-11-12T00:30:28.758Z,19.45
2022-11-12T00:33:15.838Z,19.46
2022-11-12T00:36:02.328Z,19.48
2022-11-12T00:38:51.639Z,19.48
2022-11-12T00:41:38.110Z,19.46
2022-11-12T00:44:24.094Z,19.39
2022-11-12T00:47:10.486Z,19.41
2022-11-12T00:49:57.016Z,19.39
2022-11-12T00:52:43.714Z,19.41
2022-11-12T00:55:29.454Z,19.34
2022-11-12T00:58:15.138Z,19.36
2022-11-12T01:01:12.727Z,19.29
2022-11-12T01:04:00.485Z,19.26
2022-11-12T01:06:46.499Z,19.21
2022-11-12T01:09:32.292Z,19.15
2022-11-12T01:12:18.165Z,19.15
2022-11-12T01:15:06.312Z,18.99
2022-11-12T01:17:52.671Z,19.05
2022-11-12T01:20:39.935Z,19.00
2022-11-12T01:23:25.510Z,19.05
2022-11-12T01:26:14.574Z,18.96
2022-11-12T01:29:01.281Z,18.84
2022-11-12T01:31:47.706Z,18.83
2022-11-12T01:34:34.557Z,18.72
2022-11-12T01:37:20.410Z,18.64
2022-11-12T01:40:07.809Z,18.69
2022-11-12T01:42:54.573Z,18.72
2022-11-12T01:45:46.146Z,18.75
2022-11-12T01:48:40.547Z,18.77
2022-11-12T01:51:33.592Z,18.80
2022-11-12T01:54:22.246Z,18.83
2022-11-12T01:57:11.557Z,18.82
2022-11-12T02:00:02.736Z,18.82
2022-11-12T02:02:57.041Z,18.84
2022-11-12T02:05:43.818Z,18.80
2022-11-12T02:08:31.675Z,18.80
2022-11-12T02:11:23.080Z,18.70
2022-11-12T02:14:09.690Z,18.74
2022-11-12T02:16:55.923Z,18.66
2022-11-12T02:19:42.087Z,18.63
2022-11-12T02:22:29.008Z,18.70
2022-11-12T02:25:24.951Z,18.67
2022-11-12T02:28:18.223Z,18.61
2022-11-12T02:31:10.446Z,18.59
2022-11-12T02:33:58.145Z,18.56
2022-11-12T02:36:44.392Z,18.62
2022-11-12T02:39:30.319Z,18.62
2022-11-12T02:42:16.551Z,18.60
2022-11-12T02:45:03.379Z,18.57
2022-11-12T02:47:51.063Z,18.55
2022-11-12T02:50:37.275Z,18.52
2022-11-12T02:53:24.017Z,18.51
2022-11-12T02:56:10.097Z,18.32
2022-11-12T02:58:56.671Z,18.43
2022-11-12T03:01:42.835Z,18.39
2022-11-12T03:04:28.975Z,18.35
2022-11-12T03:07:15.486Z,18.35
2022-11-12T03:10:01.628Z,18.33
2022-11-12T03:12:48.268Z,18.31
2022-11-12T03:15:34.883Z,18.29
2022-11-12T03:18:21.313Z,18.18
2022-11-12T03:21:08.236Z,18.21
2022-11-12T03:23:54.032Z,18.20
2022-11-12T03:26:40.153Z,18.24
2022-11-12T03:29:27.601Z,18.30
2022-11-12T03:32:13.715Z,18.27
2022-11-12T03:35:00.198Z,18.24
2022-11-12T03:37:46.375Z,18.24
2022-11-12T03:40:33.998Z,18.16
2022-11-12T03:43:19.913Z,18.24
2022-11-12T03:46:11.946Z,18.28
2022-11-12T03:49:00.043Z,18.31
2022-11-12T03:51:47.199Z,18.21
2022-11-12T03:54:33.407Z,18.21
2022-11-12T03:57:21.611Z,18.18
2022-11-12T04:00:21.973Z,18.25
2022-11-12T04:03:07.738Z,18.17
2022-11-12T04:06:11.905Z,18.09
2022-11-12T04:08:58.271Z,18.16
2022-11-12T04:11:44.404Z,18.13
2022-11-12T04:14:30.275Z,18.14
2022-11-12T04:17:34.744Z,18.18
2022-11-12T04:20:39.733Z,18.19
2022-11-12T04:23:28.543Z,18.14
2022-11-12T04:26:23.905Z,18.25
2022-11-12T04:29:28.613Z,18.15
2022-11-12T04:32:14.682Z,18.19
2022-11-12T04:35:01.913Z,18.17
2022-11-12T04:37:48.961Z,18.15
2022-11-12T04:40:53.355Z,18.16
2022-11-12T04:43:57.990Z,18.16
2022-11-12T04:46:43.625Z,18.07
2022-11-12T04:49:29.811Z,18.12
2022-11-12T04:52:16.790Z,18.11
2022-11-12T04:55:03.240Z,18.14
2022-11-12T04:57:49.083Z,18.13
2022-11-12T05:00:36.399Z,18.16
2022-11-12T05:03:23.574Z,18.13
2022-11-12T05:06:30.746Z,18.03
2022-11-12T05:09:16.507Z,18.10
2022-11-12T05:12:22.774Z,18.15
2022-11-12T05:15:14.478Z,18.04
2022-11-12T05:18:01.067Z,17.98
2022-11-12T05:20:47.728Z,18.04
2022-11-12T05:23:33.420Z,17.98
2022-11-12T05:26:19.378Z,18.03
2022-11-12T05:29:08.736Z,18.02
2022-11-12T05:31:55.357Z,18.07
2022-11-12T05:34:42.324Z,18.11
2022-11-12T05:37:28.553Z,18.06
2022-11-12T05:40:14.457Z,18.01
2022-11-12T05:43:00.665Z,17.93
2022-11-12T05:45:46.704Z,17.89
2022-11-12T05:48:33.004Z,17.90
2022-11-12T05:51:18.961Z,17.95
2022-11-12T05:54:05.674Z,18.00
2022-11-12T05:56:54.138Z,18.02
2022-11-12T05:59:40.450Z,17.91
2022-11-12T06:02:26.185Z,17.73
2022-11-12T06:05:12.331Z,17.77
2022-11-12T06:07:58.921Z,17.82
2022-11-12T06:11:11.803Z,17.78
2022-11-12T06:13:57.952Z,17.80
2022-11-12T06:16:44.176Z,17.76
2022-11-12T06:19:30.673Z,17.85
2022-11-12T06:22:17.388Z,17.89
2022-11-12T06:25:03.196Z,17.94
2022-11-12T06:27:49.943Z,17.92
2022-11-12T06:30:38.030Z,17.97
2022-11-12T06:33:24.296Z,17.93
2022-11-12T06:36:12.238Z,17.97
2022-11-12T06:38:58.688Z,17.93
2022-11-12T06:41:44.805Z,18.00
2022-11-12T06:44:31.119Z,18.01
2022-11-12T06:47:17.331Z,18.08
2022-11-12T06:50:06.707Z,18.12
2022-11-12T06:52:58.309Z,18.10
2022-11-12T06:55:44.529Z,18.13
2022-11-12T06:58:31.363Z,18.22
2022-11-12T07:01:19.719Z,18.16
2022-11-12T07:04:05.981Z,18.27
2022-11-12T07:06:59.235Z,18.35
2022-11-12T07:09:45.294Z,18.40
2022-11-12T07:12:31.825Z,18.42
2022-11-12T07:15:19.810Z,18.46
2022-11-12T07:18:06.103Z,18.49
2022-11-12T07:20:52.173Z,18.48
2022-11-12T07:23:39.092Z,18.54
2022-11-12T07:26:30.719Z,18.53
2022-11-12T07:29:30.190Z,18.61
2022-11-12T07:32:28.060Z,18.55
2022-11-12T07:35:14.563Z,18.53
2022-11-12T07:38:00.762Z,18.60
2022-11-12T07:40:46.957Z,18.61
2022-11-12T07:43:35.261Z,18.59
2022-11-12T07:46:23.067Z,18.64
2022-11-12T07:49:09.409Z,18.70
2022-11-12T07:51:55.620Z,18.74
2022-11-12T07:54:43.360Z,18.74
2022-11-12T07:57:30.149Z,18.77
2022-11-12T08:00:17.423Z,18.71
2022-11-12T08:03:03.778Z,18.72
2022-11-12T08:05:51.198Z,18.83
2022-11-12T08:08:37.128Z,19.00
2022-11-12T08:11:24.309Z,18.93
2022-11-12T08:14:11.172Z,19.04
2022-11-12T08:16:57.838Z,19.11
2022-11-12T08:19:45.795Z,19.23
2022-11-12T08:22:36.678Z,19.19
2022-11-12T08:25:22.765Z,19.31
2022-11-12T08:28:08.941Z,19.25
2022-11-12T08:30:57.338Z,19.34
2022-11-12T08:33:44.982Z,19.40
2022-11-12T08:36:31.745Z,19.44
2022-11-12T08:39:17.885Z,19.45
2022-11-12T08:42:05.098Z,19.50
2022-11-12T08:44:51.819Z,19.51
2022-11-12T08:47:37.903Z,19.51
2022-11-12T08:50:23.985Z,19.55
2022-11-12T08:53:14.277Z,19.57
2022-11-12T08:56:01.584Z,19.60
2022-11-12T08:58:52.765Z,19.67
2022-11-12T09:01:56.561Z,19.79
2022-11-12T09:04:43.931Z,19.84
2022-11-12T09:07:48.702Z,19.92
2022-11-12T09:10:36.187Z,19.89
2022-11-12T09:13:23.023Z,19.96
2022-11-12T09:16:10.830Z,19.94
2022-11-12T09:19:00.716Z,19.99
2022-11-12T09:21:47.645Z,20.03
2022-11-12T09:24:34.431Z,20.12
2022-11-12T09:27:21.243Z,20.23
2022-11-12T09:30:09.309Z,20.23
2022-11-12T09:32:59.597Z,20.33
2022-11-12T09:35:47.468Z,20.32
2022-11-12T09:38:34.339Z,20.44
2022-11-12T09:41:30.261Z,20.51
2022-11-12T09:44:22.802Z,20.61
2022-11-12T09:47:21.218Z,20.75
2022-11-12T09:50:36.986Z,20.79
2022-11-12T09:53:44.238Z,20.96
2022-11-12T09:56:31.212Z,20.99
2022-11-12T09:59:19.797Z,21.01
2022-11-12T10:02:56.398Z,21.02
2022-11-12T10:05:50.211Z,21.13
2022-11-12T10:09:03.872Z,21.22
2022-11-12T10:12:29.933Z,21.25
2022-11-12T10:16:37.477Z,21.24
2022-11-12T10:20:14.165Z,21.23
2022-11-12T10:23:24.828Z,21.32
2022-11-12T10:26:17.729Z,21.40
2022-11-12T10:29:11.937Z,21.38
2022-11-12T10:32:18.737Z,21.50
2022-11-12T10:35:05.059Z,21.50
2022-11-12T10:38:07.896Z,21.52
2022-11-12T10:40:54.336Z,21.57
2022-11-12T10:43:54.693Z,21.61
2022-11-12T10:46:43.828Z,21.66
2022-11-12T10:49:30.496Z,21.74
2022-11-12T10:52:29.853Z,21.76
2022-11-12T10:55:20.662Z,21.96
2022-11-12T10:58:12.954Z,21.81
2022-11-12T11:01:14.877Z,21.70
2022-11-12T11:04:00.870Z,21.76
2022-11-12T11:06:47.291Z,21.74
2022-11-12T11:09:34.849Z,21.70
2022-11-12T11:12:28.895Z,21.63
2022-11-12T11:15:25.339Z,21.72
2022-11-12T11:18:13.375Z,21.64
2022-11-12T11:21:08.662Z,21.61
2022-11-12T11:24:02.457Z,21.63
2022-11-12T11:27:03.670Z,21.69
2022-11-12T11:30:03.830Z,21.67
2022-11-12T11:33:08.253Z,21.64
2022-11-12T11:36:14.315Z,21.55
2022-11-12T11:39:10.759Z,21.69
2022-11-12T11:42:18.195Z,21.70
2022-11-12T11:45:33.646Z,21.56
2022-11-12T11:48:57.038Z,21.40
2022-11-12T11:51:50.049Z,21.37
2022-11-12T11:55:04.404Z,21.32
2022-11-12T11:57:59.299Z,21.26
2022-11-12T12:00:50.222Z,21.21
2022-11-12T12:04:12.449Z,21.28
2022-11-12T12:07:06.120Z,21.33
2022-11-12T12:10:14.141Z,21.42
2022-11-12T12:13:22.384Z,21.44
2022-11-12T12:16:46.459Z,21.47
2022-11-12T12:19:49.278Z,21.52
2022-11-12T12:23:14.111Z,21.68
2022-11-12T12:26:03.750Z,21.75
2022-11-12T12:29:12.156Z,21.73
2022-11-12T12:32:15.000Z,21.76
2022-11-12T12:35:41.263Z,21.76
2022-11-12T12:38:36.777Z,21.79
2022-11-12T12:41:30.124Z,21.74
2022-11-12T12:44:16.527Z,21.77
2022-11-12T12:47:04.677Z,21.80
2022-11-12T12:49:53.536Z,21.77
2022-11-12T12:53:26.142Z,21.90
2022-11-12T12:56:15.705Z,22.04
2022-11-12T12:59:08.986Z,22.02
2022-11-12T13:02:03.258Z,21.94
2022-11-12T13:04:58.378Z,21.94
2022-11-12T13:07:48.671Z,22.01
2022-11-12T13:10:56.758Z,22.10
2022-11-12T13:13:43.212Z,22.00
2022-11-12T13:16:53.801Z,21.98
2022-11-12T13:20:05.540Z,21.92
2022-11-12T13:22:52.356Z,21.93
2022-11-12T13:25:39.360Z,21.92
2022-11-12T13:28:27.715Z,21.87
2022-11-12T13:31:28.466Z,21.85
2022-11-12T13:34:32.489Z,21.96
2022-11-12T13:37:29.110Z,22.04
2022-11-12T13:40:39.731Z,22.04
2022-11-12T13:43:32.154Z,22.07
2022-11-12T13:46:27.304Z,22.09
2022-11-12T13:49:20.524Z,22.02
2022-11-12T13:52:07.279Z,21.91
2022-11-12T13:55:08.145Z,21.84
2022-11-12T13:58:01.690Z,21.88
2022-11-12T14:01:02.913Z,21.94
2022-11-12T14:03:52.339Z,21.92
2022-11-12T14:06:47.247Z,21.92
2022-11-12T14:09:55.019Z,21.96
2022-11-12T14:13:03.577Z,21.94
2022-11-12T14:16:25.377Z,21.90
2022-11-12T14:19:56.063Z,21.95
2022-11-12T14:22:46.130Z,21.91
2022-11-12T14:25:34.276Z,21.92
2022-11-12T14:28:29.338Z,21.86
2022-11-12T14:31:27.471Z,21.77
2022-11-12T14:34:31.529Z,21.83
2022-11-12T14:37:43.452Z,21.80
2022-11-12T14:40:33.235Z,21.84
2022-11-12T14:43:43.909Z,21.82
2022-11-12T14:46:39.039Z,21.76
2022-11-12T14:49:44.318Z,21.74
2022-11-12T14:52:41.490Z,21.73
2022-11-12T14:55:36.740Z,21.69
2022-11-12T14:58:34.536Z,21.64
2022-11-12T15:02:08.921Z,21.67
2022-11-12T15:04:44.744Z,21.66
2022-11-12T15:07:36.468Z,21.56
2022-11-12T15:10:40.258Z,21.32
2022-11-12T15:14:18.269Z,21.32
2022-11-12T15:17:06.365Z,21.22
2022-11-12T15:19:52.284Z,21.13
2022-11-12T15:22:38.806Z,21.11
2022-11-12T15:25:28.211Z,21.13
2022-11-12T15:28:22.603Z,21.16
2022-11-12T15:31:22.798Z,21.02
2022-11-12T15:34:30.150Z,20.94
2022-11-12T15:37:20.092Z,20.95
2022-11-12T15:40:19.054Z,20.96
2022-11-12T15:43:12.957Z,20.96
2022-11-12T15:45:58.963Z,20.86
2022-11-12T15:48:45.931Z,20.86
2022-11-12T15:51:32.343Z,20.81
2022-11-12T15:54:21.713Z,20.80
2022-11-12T15:57:15.485Z,20.74
2022-11-12T16:00:08.355Z,20.74
2022-11-12T16:03:13.514Z,20.72
2022-11-12T16:06:03.953Z,20.67
2022-11-12T16:08:54.108Z,20.67
2022-11-12T16:11:40.134Z,20.66
2022-11-12T16:14:26.901Z,20.67
2022-11-12T16:17:16.488Z,20.66
2022-11-12T16:20:02.785Z,20.63
2022-11-12T16:22:49.595Z,20.61
2022-11-12T16:25:38.658Z,20.53
2022-11-12T16:28:24.942Z,20.55
2022-11-12T16:31:11.258Z,20.47
2022-11-12T16:33:57.264Z,20.47
2022-11-12T16:36:48.009Z,20.45
2022-11-12T16:39:33.767Z,20.38
2022-11-12T16:42:19.881Z,20.35
2022-11-12T16:45:06.698Z,20.35
2022-11-12T16:47:55.858Z,20.31
2022-11-12T16:50:41.656Z,20.25
2022-11-12T16:53:28.280Z,20.25
2022-11-12T16:56:36.635Z,20.23
2022-11-12T16:59:22.776Z,20.21
2022-11-12T17:02:18.328Z,20.16
2022-11-12T17:05:05.662Z,20.14
2022-11-12T17:07:58.303Z,20.14
2022-11-12T17:10:46.033Z,20.10
2022-11-12T17:13:32.297Z,20.06
2022-11-12T17:16:18.244Z,20.07
2022-11-12T17:19:08.129Z,20.07
2022-11-12T17:21:53.865Z,20.07
2022-11-12T17:24:41.440Z,20.07
2022-11-12T17:27:32.979Z,20.04
2022-11-12T17:30:22.887Z,20.06
2022-11-12T17:33:14.326Z,20.04
2022-11-12T17:36:11.276Z,20.07
2022-11-12T17:39:06.082Z,20.07
2022-11-12T17:41:56.967Z,20.08
2022-11-12T17:44:44.509Z,20.07
2022-11-12T17:47:30.735Z,20.08
2022-11-12T17:50:21.671Z,20.03
2022-11-12T17:53:10.982Z,20.05
2022-11-12T17:56:01.003Z,20.02
2022-11-12T17:58:47.712Z,20.03
2022-11-12T18:01:35.129Z,20.00
2022-11-12T18:04:30.800Z,19.98
2022-11-12T18:07:16.831Z,19.96
2022-11-12T18:10:05.915Z,19.90
2022-11-12T18:12:53.340Z,19.93
2022-11-12T18:15:39.004Z,19.86
2022-11-12T18:18:26.205Z,19.90
2022-11-12T18:21:14.461Z,19.88
2022-11-12T18:24:01.361Z,19.81
2022-11-12T18:26:47.561Z,19.77
2022-11-12T18:29:34.492Z,19.78
2022-11-12T18:32:21.170Z,19.80
2022-11-12T18:35:08.440Z,19.79
2022-11-12T18:37:56.081Z,19.80
2022-11-12T18:40:42.890Z,19.75
2022-11-12T18:43:30.269Z,19.78
2022-11-12T18:46:17.244Z,19.80
2022-11-12T18:49:04.076Z,19.77
2022-11-12T18:51:50.476Z,19.82
2022-11-12T18:54:37.036Z,19.82
2022-11-12T18:57:23.383Z,19.83
2022-11-12T19:00:11.317Z,19.82
2022-11-12T19:02:57.896Z,19.78
2022-11-12T19:05:45.288Z,19.80
2022-11-12T19:08:33.591Z,19.79
2022-11-12T19:11:22.979Z,19.82
2022-11-12T19:14:09.450Z,19.82
2022-11-12T19:16:56.456Z,19.83
2022-11-12T19:19:42.530Z,19.78
2022-11-12T19:22:30.184Z,19.81
2022-11-12T19:25:16.781Z,19.81
2022-11-12T19:28:03.286Z,19.79
2022-11-12T19:30:49.845Z,19.80
2022-11-12T19:33:36.685Z,19.80
2022-11-12T19:36:25.270Z,19.81
2022-11-12T19:39:11.135Z,19.81
2022-11-12T19:42:06.732Z,19.80
2022-11-12T19:44:55.057Z,19.80
2022-11-12T19:47:44.971Z,19.80
2022-11-12T19:50:33.867Z,19.82
2022-11-12T19:53:19.959Z,19.80
2022-11-12T19:56:07.682Z,19.74
2022-11-12T19:58:55.499Z,19.77
2022-11-12T20:01:41.742Z,19.73
2022-11-12T20:04:27.783Z,19.71
2022-11-12T20:07:14.219Z,19.71
2022-11-12T20:10:03.256Z,19.56
2022-11-12T20:12:48.810Z,19.50
2022-11-12T20:15:34.815Z,19.50
2022-11-12T20:18:23.081Z,19.48
2022-11-12T20:21:11.136Z,19.46
2022-11-12T20:24:01.991Z,19.46
2022-11-12T20:26:48.204Z,19.44
2022-11-12T20:29:37.795Z,19.42
2022-11-12T20:32:39.127Z,19.44
2022-11-12T20:35:25.234Z,19.44
2022-11-12T20:38:11.531Z,19.43
2022-11-12T20:41:00.601Z,19.42
2022-11-12T20:43:46.997Z,19.40
2022-11-12T20:46:33.372Z,19.34
2022-11-12T20:49:19.287Z,19.36
2022-11-12T20:52:05.279Z,19.29
2022-11-12T20:54:51.377Z,19.25
2022-11-12T20:57:37.365Z,19.27
2022-11-12T21:00:24.423Z,19.34
2022-11-12T21:03:11.814Z,19.38
2022-11-12T21:06:03.209Z,19.38
2022-11-12T21:08:49.836Z,19.31
2022-11-12T21:11:36.510Z,19.25
2022-11-12T21:14:22.622Z,19.21
2022-11-12T21:17:08.918Z,19.19
2022-11-12T21:19:55.261Z,19.14
2022-11-12T21:23:34.438Z,19.09
2022-11-12T21:26:25.258Z,19.08
2022-11-12T21:29:29.299Z,19.14
2022-11-12T21:32:17.249Z,19.14
2022-11-12T21:35:07.998Z,19.21
2022-11-12T21:38:02.078Z,19.27
2022-11-12T21:40:49.130Z,19.30
2022-11-12T21:43:45.378Z,19.35
2022-11-12T21:46:34.028Z,19.36
2022-11-12T21:49:28.364Z,19.38
2022-11-12T21:52:35.616Z,19.27
2022-11-12T22:16:38.631Z,19.10
2022-11-12T22:22:12.109Z,19.17
2022-11-12T22:23:33.305Z,19.08
2022-11-12T22:26:28.959Z,18.91
2022-11-12T22:29:15.440Z,18.75
2022-11-12T22:32:01.605Z,18.71
2022-11-12T22:34:49.569Z,18.71
2022-11-12T22:37:36.449Z,18.64
2022-11-12T22:40:22.688Z,18.77
2022-11-12T22:43:09.589Z,18.71
2022-11-12T22:45:58.670Z,18.84
2022-11-12T22:48:44.974Z,18.91
2022-11-12T22:51:33.570Z,19.01
2022-11-12T22:54:19.462Z,18.88
2022-11-12T22:57:05.902Z,18.99
2022-11-12T22:59:51.799Z,18.92
2022-11-12T23:02:37.659Z,18.82
2022-11-12T23:05:23.614Z,18.86
2022-11-12T23:08:11.386Z,18.85
2022-11-12T23:10:58.518Z,18.77
2022-11-12T23:13:46.797Z,18.68
2022-11-12T23:16:33.521Z,18.54
2022-11-12T23:19:20.010Z,18.53
2022-11-12T23:22:09.243Z,18.38
2022-11-12T23:24:56.193Z,18.51
2022-11-12T23:27:42.227Z,18.47
2022-11-12T23:30:28.778Z,18.49
2022-11-12T23:33:15.263Z,18.49
2022-11-12T23:36:09.873Z,18.50
2022-11-12T23:39:01.155Z,18.49
2022-11-12T23:41:48.322Z,18.49
2022-11-12T23:44:34.608Z,18.45
2022-11-12T23:47:21.304Z,18.41
2022-11-12T23:50:08.424Z,18.35
2022-11-12T23:52:54.332Z,18.37
2022-11-12T23:55:43.188Z,18.38
2022-11-12T23:58:30.668Z,18.31
